createdAt,value
2018-10-06T00:00:04.928Z,12.00
2018-10-06T00:02:32.797Z,12.00
2018-10-06T00:05:00.408Z,12.00
2018-10-06T00:07:27.931Z,11.90
2018-10-06T00:09:56.512Z,11.80
2018-10-06T00:12:24.097Z,11.90
2018-10-06T00:14:51.622Z,11.90
2018-10-06T00:17:19.141Z,11.90
2018-10-06T00:19:46.685Z,11.80
2018-10-06T00:22:14.330Z,11.80
2018-10-06T00:24:41.914Z,11.70
2018-10-06T00:27:09.422Z,11.80
2018-10-06T00:29:36.962Z,11.70
2018-10-06T00:32:04.510Z,11.70
2018-10-06T00:34:32.046Z,11.70
2018-10-06T00:36:59.720Z,11.60
2018-10-06T00:39:27.290Z,11.60
2018-10-06T00:41:54.819Z,11.60
2018-10-06T00:44:22.324Z,11.50
2018-10-06T00:46:49.911Z,11.60
2018-10-06T00:49:17.639Z,11.50
2018-10-06T00:51:45.181Z,11.50
2018-10-06T00:54:12.706Z,11.50
2018-10-06T00:56:40.413Z,11.40
2018-10-06T00:59:07.901Z,11.40
2018-10-06T01:01:35.536Z,11.50
2018-10-06T01:04:03.250Z,11.50
2018-10-06T01:06:30.753Z,11.40
2018-10-06T01:08:58.379Z,11.40
2018-10-06T01:11:26.021Z,11.50
2018-10-06T01:13:53.887Z,11.40
2018-10-06T01:16:21.603Z,11.40
2018-10-06T01:18:49.221Z,11.40
2018-10-06T01:21:16.803Z,11.40
2018-10-06T01:23:44.366Z,11.40
2018-10-06T01:26:11.940Z,11.20
2018-10-06T01:28:39.555Z,11.30
2018-10-06T01:31:07.247Z,11.30
2018-10-06T01:33:34.763Z,11.40
2018-10-06T01:36:02.293Z,11.40
2018-10-06T01:38:29.889Z,11.40
2018-10-06T01:40:57.483Z,11.30
2018-10-06T01:43:24.949Z,11.30
2018-10-06T01:45:52.518Z,11.30
2018-10-06T01:48:20.290Z,11.20
2018-10-06T01:50:47.857Z,11.20
2018-10-06T01:53:15.482Z,11.20
2018-10-06T01:55:43.028Z,11.20
2018-10-06T01:58:10.704Z,11.30
2018-10-06T02:00:38.258Z,11.20
2018-10-06T02:03:06.079Z,11.20
2018-10-06T02:05:33.735Z,11.10
2018-10-06T02:08:01.260Z,11.10
2018-10-06T02:10:28.839Z,11.10
2018-10-06T02:12:56.410Z,11.10
2018-10-06T02:15:23.897Z,11.10
2018-10-06T02:17:51.482Z,11.10
2018-10-06T02:20:18.957Z,11.00
2018-10-06T02:22:46.522Z,11.00
2018-10-06T02:25:14.056Z,11.00
2018-10-06T02:27:41.680Z,10.90
2018-10-06T02:30:09.494Z,10.90
2018-10-06T02:32:36.954Z,10.90
2018-10-06T02:35:04.584Z,10.80
2018-10-06T02:37:32.148Z,10.90
2018-10-06T02:39:59.740Z,11.00
2018-10-06T02:42:27.213Z,10.90
2018-10-06T02:44:54.804Z,10.90
2018-10-06T02:47:22.294Z,10.90
2018-10-06T02:49:50.028Z,10.80
2018-10-06T02:52:17.928Z,10.80
2018-10-06T02:54:45.541Z,10.80
2018-10-06T02:57:13.279Z,10.70
2018-10-06T02:59:40.822Z,10.80
2018-10-06T03:02:08.338Z,10.80
2018-10-06T03:04:35.866Z,10.70
2018-10-06T03:07:03.431Z,10.80
2018-10-06T03:09:30.994Z,10.70
2018-10-06T03:11:58.501Z,10.80
2018-10-06T03:14:26.050Z,10.70
2018-10-06T03:16:53.574Z,10.70
2018-10-06T03:19:21.167Z,10.70
2018-10-06T03:21:48.832Z,10.70
2018-10-06T03:24:17.449Z,10.60
2018-10-06T03:26:44.958Z,10.60
2018-10-06T03:29:12.498Z,10.60
2018-10-06T03:31:40.291Z,10.60
2018-10-06T03:34:08.013Z,10.50
2018-10-06T03:36:35.504Z,10.60
2018-10-06T03:39:04.105Z,10.60
2018-10-06T03:41:31.631Z,10.60
2018-10-06T03:43:59.126Z,10.50
2018-10-06T03:46:26.738Z,10.50
2018-10-06T03:48:54.210Z,10.40
2018-10-06T03:51:21.775Z,10.50
2018-10-06T03:53:49.956Z,10.50
2018-10-06T03:56:17.674Z,10.40
2018-10-06T03:58:45.262Z,10.40
2018-10-06T04:01:12.870Z,10.40
2018-10-06T04:03:40.393Z,10.40
2018-10-06T04:06:08.049Z,10.40
2018-10-06T04:08:35.558Z,10.40
2018-10-06T04:11:03.080Z,10.40
2018-10-06T04:13:30.678Z,10.30
2018-10-06T04:15:58.189Z,10.40
2018-10-06T04:18:25.721Z,10.30
2018-10-06T04:20:53.210Z,10.20
2018-10-06T04:23:20.904Z,10.20
2018-10-06T04:25:48.515Z,10.20
2018-10-06T04:28:16.092Z,10.30
2018-10-06T04:30:43.670Z,10.20
2018-10-06T04:33:11.229Z,10.30
2018-10-06T04:35:38.867Z,10.30
2018-10-06T04:38:06.457Z,10.20
2018-10-06T04:40:33.978Z,10.30
2018-10-06T04:43:01.541Z,10.30
2018-10-06T04:45:29.033Z,10.20
2018-10-06T04:47:56.584Z,10.20
2018-10-06T04:50:24.093Z,10.20
2018-10-06T04:52:51.668Z,10.20
2018-10-06T04:55:19.269Z,10.20
2018-10-06T04:57:46.732Z,10.10
2018-10-06T05:00:14.265Z,10.10
2018-10-06T05:02:41.849Z,10.10
2018-10-06T05:05:09.307Z,10.10
2018-10-06T05:07:36.919Z,10.00
2018-10-06T05:10:04.600Z,10.00
2018-10-06T05:12:32.173Z,10.00
2018-10-06T05:14:59.735Z,10.10
2018-10-06T05:17:27.367Z,10.10
2018-10-06T05:19:54.965Z,9.90
2018-10-06T05:22:22.498Z,10.10
2018-10-06T05:24:50.014Z,10.10
2018-10-06T05:27:17.555Z,10.10
2018-10-06T05:29:45.166Z,10.00
2018-10-06T05:32:12.683Z,10.00
2018-10-06T05:34:40.159Z,10.00
2018-10-06T05:37:07.769Z,9.90
2018-10-06T05:39:35.331Z,9.90
2018-10-06T05:42:02.850Z,9.90
2018-10-06T05:44:30.423Z,9.90
2018-10-06T05:46:58.042Z,9.90
2018-10-06T05:49:25.554Z,9.90
2018-10-06T05:51:53.129Z,9.80
2018-10-06T05:54:20.831Z,9.80
2018-10-06T05:56:48.475Z,9.80
2018-10-06T05:59:16.111Z,9.80
2018-10-06T06:01:43.609Z,9.80
2018-10-06T06:04:11.122Z,9.80
2018-10-06T06:06:38.706Z,9.80
2018-10-06T06:09:06.560Z,9.80
2018-10-06T06:11:34.311Z,9.90
2018-10-06T06:14:01.818Z,9.80
2018-10-06T06:16:29.586Z,9.80
2018-10-06T06:18:57.116Z,9.90
2018-10-06T06:21:24.719Z,9.90
2018-10-06T06:23:52.364Z,9.80
2018-10-06T06:26:19.903Z,9.90
2018-10-06T06:28:47.507Z,9.90
2018-10-06T06:31:15.229Z,9.80
2018-10-06T06:33:42.727Z,9.80
2018-10-06T06:36:10.321Z,9.80
2018-10-06T06:38:37.839Z,9.80
2018-10-06T06:41:06.887Z,9.90
2018-10-06T06:43:35.060Z,9.60
2018-10-06T06:46:05.346Z,9.90
2018-10-06T06:48:33.849Z,10.00
2018-10-06T06:51:01.428Z,10.00
2018-10-06T06:53:28.960Z,10.10
2018-10-06T06:55:57.110Z,10.10
2018-10-06T06:58:24.828Z,10.20
2018-10-06T07:00:52.357Z,10.10
2018-10-06T07:03:19.987Z,10.20
2018-10-06T07:05:47.627Z,10.20
2018-10-06T07:08:15.238Z,10.30
2018-10-06T07:10:42.911Z,10.20
2018-10-06T07:13:10.587Z,10.40
2018-10-06T07:15:38.251Z,10.40
2018-10-06T07:18:06.014Z,10.50
2018-10-06T07:20:33.522Z,10.40
2018-10-06T07:23:01.229Z,10.50
2018-10-06T07:25:28.894Z,10.50
2018-10-06T07:27:56.440Z,10.60
2018-10-06T07:30:23.978Z,10.70
2018-10-06T07:32:51.590Z,10.70
2018-10-06T07:35:19.121Z,10.80
2018-10-06T07:37:46.803Z,10.90
2018-10-06T07:40:14.555Z,10.90
2018-10-06T07:42:42.355Z,10.90
2018-10-06T07:45:10.022Z,10.90
2018-10-06T07:47:43.123Z,11.00
2018-10-06T07:50:10.791Z,11.10
2018-10-06T07:52:38.954Z,11.10
2018-10-06T07:55:06.675Z,11.20
2018-10-06T07:57:34.443Z,11.20
2018-10-06T08:00:02.564Z,11.30
2018-10-06T08:02:30.368Z,11.40
2018-10-06T08:04:58.232Z,11.50
2018-10-06T08:07:26.390Z,11.60
2018-10-06T08:09:54.111Z,11.70
2018-10-06T08:12:21.859Z,11.80
2018-10-06T08:14:49.902Z,11.90
2018-10-06T08:17:17.653Z,12.10
2018-10-06T08:19:45.367Z,12.00
2018-10-06T08:22:13.099Z,12.30
2018-10-06T08:24:41.271Z,12.30
2018-10-06T08:27:08.883Z,12.30
2018-10-06T08:29:36.522Z,12.50
2018-10-06T08:32:04.046Z,12.60
2018-10-06T08:34:31.499Z,12.70
2018-10-06T08:36:59.145Z,12.70
2018-10-06T08:39:26.783Z,12.90
2018-10-06T08:41:54.519Z,12.80
2018-10-06T08:44:22.127Z,12.80
2018-10-06T08:46:49.748Z,12.90
2018-10-06T08:49:17.464Z,12.90
2018-10-06T08:51:45.172Z,13.00
2018-10-06T08:54:12.952Z,13.10
2018-10-06T08:56:40.630Z,13.10
2018-10-06T08:59:08.239Z,13.20
2018-10-06T09:01:35.887Z,13.30
2018-10-06T09:04:03.443Z,13.40
2018-10-06T09:06:30.957Z,13.60
2018-10-06T09:08:58.415Z,13.60
2018-10-06T09:11:25.971Z,13.80
2018-10-06T09:13:53.656Z,13.90
2018-10-06T09:16:31.958Z,14.10
2018-10-06T09:19:01.905Z,14.10
2018-10-06T09:21:35.378Z,14.30
2018-10-06T09:24:07.233Z,14.40
2018-10-06T09:26:40.423Z,14.60
2018-10-06T09:29:11.755Z,14.60
2018-10-06T09:31:41.668Z,14.70
2018-10-06T09:34:16.523Z,14.70
2018-10-06T09:36:46.796Z,14.90
2018-10-06T09:39:16.173Z,15.10
2018-10-06T09:41:46.872Z,15.20
2018-10-06T09:44:26.641Z,15.20
2018-10-06T09:46:56.465Z,15.30
2018-10-06T09:49:25.663Z,15.40
2018-10-06T09:51:57.248Z,15.50
2018-10-06T09:54:27.073Z,15.50
2018-10-06T09:56:55.645Z,15.70
2018-10-06T09:59:25.836Z,15.90
2018-10-06T10:02:00.075Z,16.00
2018-10-06T10:04:28.490Z,16.10
2018-10-06T10:07:03.379Z,16.20
2018-10-06T10:12:13.082Z,16.40
2018-10-06T10:14:42.345Z,16.50
2018-10-06T10:17:16.380Z,16.60
2018-10-06T10:19:51.941Z,16.70
2018-10-06T10:22:23.023Z,16.90
2018-10-06T10:24:56.275Z,17.00
2018-10-06T10:27:25.249Z,17.10
2018-10-06T10:29:54.441Z,17.10
2018-10-06T10:32:24.921Z,17.50
2018-10-06T10:35:05.112Z,17.50
2018-10-06T10:37:41.676Z,17.50
2018-10-06T10:40:13.609Z,17.50
2018-10-06T10:42:46.320Z,17.70
2018-10-06T10:45:17.671Z,17.80
2018-10-06T10:47:47.003Z,17.80
2018-10-06T10:50:23.602Z,18.00
2018-10-06T10:52:57.111Z,18.10
2018-10-06T10:55:28.813Z,18.40
2018-10-06T10:57:58.791Z,18.80
2018-10-06T11:00:36.034Z,19.00
2018-10-06T11:03:10.160Z,19.00
2018-10-06T11:05:39.555Z,19.00
2018-10-06T11:08:11.755Z,19.00
2018-10-06T11:10:49.494Z,19.00
2018-10-06T11:13:18.016Z,19.00
2018-10-06T11:15:56.451Z,19.00
2018-10-06T11:18:25.871Z,19.00
2018-10-06T11:20:56.917Z,19.20
2018-10-06T11:23:32.214Z,19.40
2018-10-06T11:26:01.058Z,19.40
2018-10-06T11:28:31.923Z,19.60
2018-10-06T11:31:05.179Z,19.70
2018-10-06T11:33:33.264Z,19.70
2018-10-06T11:36:01.348Z,19.70
2018-10-06T11:38:32.291Z,19.70
2018-10-06T11:41:02.849Z,19.70
2018-10-06T11:43:40.494Z,19.70
2018-10-06T11:46:09.102Z,19.70
2018-10-06T11:48:43.799Z,19.80
2018-10-06T11:51:17.131Z,20.10
2018-10-06T11:53:48.328Z,20.40
2018-10-06T11:56:17.181Z,20.60
2018-10-06T11:58:46.308Z,20.60
2018-10-06T12:01:19.737Z,20.50
2018-10-06T12:03:50.045Z,20.30
2018-10-06T12:06:22.843Z,20.10
2018-10-06T12:08:51.684Z,20.10
2018-10-06T12:11:21.002Z,20.30
2018-10-06T12:13:49.709Z,20.20
2018-10-06T12:16:18.454Z,20.30
2018-10-06T12:18:47.683Z,20.20
2018-10-06T12:21:15.801Z,20.30
2018-10-06T12:23:44.955Z,20.40
2018-10-06T12:26:23.583Z,20.50
2018-10-06T12:28:53.099Z,20.60
2018-10-06T12:31:23.087Z,20.70
2018-10-06T12:33:52.843Z,20.90
2018-10-06T12:36:22.371Z,21.00
2018-10-06T12:38:51.185Z,21.00
2018-10-06T12:41:25.032Z,21.00
2018-10-06T12:43:54.604Z,20.90
2018-10-06T12:46:23.132Z,20.90
2018-10-06T12:49:56.881Z,21.00
2018-10-06T12:52:25.679Z,21.20
2018-10-06T12:54:55.854Z,21.40
2018-10-06T12:57:24.670Z,21.30
2018-10-06T12:59:56.790Z,21.40
2018-10-06T13:02:28.927Z,21.30
2018-10-06T13:05:00.658Z,21.20
2018-10-06T13:07:34.647Z,21.20
2018-10-06T13:10:02.559Z,21.30
2018-10-06T13:12:30.164Z,21.30
2018-10-06T13:15:06.151Z,21.10
2018-10-06T13:17:34.086Z,21.10
2018-10-06T13:20:02.930Z,21.00
2018-10-06T13:22:32.027Z,21.00
2018-10-06T13:25:00.406Z,21.00
2018-10-06T13:27:33.724Z,21.00
2018-10-06T13:30:03.552Z,20.90
2018-10-06T13:35:06.817Z,20.80
2018-10-06T13:37:37.698Z,20.90
2018-10-06T13:40:29.014Z,20.90
2018-10-06T13:43:08.790Z,20.90
2018-10-06T13:45:41.348Z,21.00
2018-10-06T13:48:11.483Z,20.90
2018-10-06T13:50:50.727Z,20.90
2018-10-06T13:53:19.646Z,20.80
2018-10-06T13:55:51.432Z,20.70
2018-10-06T13:58:21.202Z,20.70
2018-10-06T14:00:50.404Z,20.70
2018-10-06T14:03:27.288Z,20.70
2018-10-06T14:05:56.024Z,20.70
2018-10-06T14:08:26.073Z,20.70
2018-10-06T14:11:03.453Z,20.70
2018-10-06T14:13:31.175Z,20.60
2018-10-06T14:18:39.240Z,20.70
2018-10-06T14:21:09.451Z,20.60
2018-10-06T14:23:38.345Z,20.50
2018-10-06T14:26:13.121Z,20.50
2018-10-06T14:28:42.082Z,20.50
2018-10-06T14:31:14.646Z,20.50
2018-10-06T14:33:42.970Z,20.50
2018-10-06T14:36:10.893Z,20.50
2018-10-06T14:38:39.978Z,20.40
2018-10-06T14:41:10.530Z,20.40
2018-10-06T14:43:42.872Z,20.30
2018-10-06T14:46:11.590Z,20.20
2018-10-06T14:48:43.740Z,20.20
2018-10-06T14:51:12.674Z,20.20
2018-10-06T14:53:45.799Z,20.20
2018-10-06T14:56:15.935Z,20.10
2018-10-06T14:58:49.310Z,20.10
2018-10-06T15:01:18.414Z,20.10
2018-10-06T15:03:50.954Z,20.10
2018-10-06T15:06:19.827Z,20.10
2018-10-06T15:08:50.619Z,20.10
2018-10-06T15:11:19.951Z,20.10
2018-10-06T15:13:48.069Z,20.10
2018-10-06T15:16:19.312Z,20.10
2018-10-06T15:18:48.849Z,20.00
2018-10-06T15:23:50.088Z,20.00
2018-10-06T15:26:20.782Z,20.00
2018-10-06T15:28:58.254Z,20.00
2018-10-06T15:31:33.438Z,20.00
2018-10-06T15:34:03.260Z,20.00
2018-10-06T15:36:31.441Z,20.00
2018-10-06T15:39:04.311Z,20.00
2018-10-06T15:41:34.162Z,19.90
2018-10-06T15:44:07.640Z,19.90
2018-10-06T15:46:37.510Z,19.90
2018-10-06T15:49:07.762Z,19.80
2018-10-06T15:51:40.063Z,19.80
2018-10-06T15:54:09.277Z,19.70
2018-10-06T15:56:39.977Z,19.80
2018-10-06T15:59:08.863Z,19.70
2018-10-06T16:01:37.670Z,19.70
2018-10-06T16:04:06.400Z,19.60
2018-10-06T16:06:35.408Z,19.60
2018-10-06T16:09:11.612Z,19.60
2018-10-06T16:11:40.779Z,19.50
2018-10-06T16:14:11.586Z,19.50
2018-10-06T16:16:43.707Z,19.50
2018-10-06T16:19:12.090Z,19.40
2018-10-06T16:21:40.979Z,19.30
2018-10-06T16:27:23.603Z,19.20
2018-10-06T16:29:51.767Z,19.10
2018-10-06T16:32:23.512Z,19.10
2018-10-06T16:34:51.939Z,19.10
2018-10-06T16:37:21.061Z,19.00
2018-10-06T16:39:58.503Z,18.90
2018-10-06T16:42:30.749Z,18.90
2018-10-06T16:45:00.018Z,18.80
2018-10-06T16:47:32.803Z,18.80
2018-10-06T16:50:02.416Z,18.90
2018-10-06T16:52:30.436Z,18.80
2018-10-06T16:54:59.275Z,18.70
2018-10-06T16:57:28.319Z,18.60
2018-10-06T16:59:56.918Z,18.70
2018-10-06T17:02:26.313Z,18.70
2018-10-06T17:04:57.535Z,18.60
2018-10-06T17:07:28.057Z,18.60
2018-10-06T17:09:56.273Z,18.50
2018-10-06T17:12:25.236Z,18.50
2018-10-06T17:14:54.846Z,18.40
2018-10-06T17:17:23.193Z,18.40
2018-10-06T17:19:54.774Z,18.30
2018-10-06T17:22:23.202Z,18.30
2018-10-06T17:24:52.343Z,18.20
2018-10-06T17:27:22.109Z,18.20
2018-10-06T17:29:50.880Z,18.10
2018-10-06T17:32:19.651Z,18.00
2018-10-06T17:34:49.071Z,18.00
2018-10-06T17:37:17.729Z,17.90
2018-10-06T17:39:46.106Z,17.90
2018-10-06T17:42:19.186Z,17.80
2018-10-06T17:44:48.102Z,17.80
2018-10-06T17:47:19.424Z,17.70
2018-10-06T17:49:48.949Z,17.90
2018-10-06T17:52:22.223Z,17.70
2018-10-06T17:54:51.093Z,17.70
2018-10-06T17:57:20.338Z,17.70
2018-10-06T17:59:53.097Z,17.70
2018-10-06T18:02:25.201Z,17.70
2018-10-06T18:04:54.913Z,17.70
2018-10-06T18:07:26.043Z,17.70
2018-10-06T18:09:55.202Z,17.70
2018-10-06T18:12:25.270Z,17.70
2018-10-06T18:14:59.545Z,17.70
2018-10-06T18:17:29.788Z,17.60
2018-10-06T18:20:00.947Z,17.50
2018-10-06T18:22:34.567Z,17.50
2018-10-06T18:25:03.133Z,17.60
2018-10-06T18:27:32.967Z,17.50
2018-10-06T18:30:01.870Z,17.40
2018-10-06T18:32:32.070Z,17.40
2018-10-06T18:35:00.180Z,17.40
2018-10-06T18:37:29.156Z,17.30
2018-10-06T18:39:57.606Z,17.30
2018-10-06T18:42:30.021Z,17.30
2018-10-06T18:44:58.113Z,17.10
2018-10-06T18:47:26.965Z,17.00
2018-10-06T18:49:55.767Z,17.10
2018-10-06T18:52:28.396Z,17.00
2018-10-06T18:55:00.540Z,16.90
2018-10-06T18:57:37.150Z,16.80
2018-10-06T19:00:07.524Z,16.80
2018-10-06T19:02:35.611Z,16.70
2018-10-06T19:05:04.441Z,16.70
2018-10-06T19:07:39.572Z,16.70
2018-10-06T19:10:09.940Z,16.60
2018-10-06T19:12:39.184Z,16.60
2018-10-06T19:15:08.850Z,16.50
2018-10-06T19:17:44.375Z,16.50
2018-10-06T19:20:18.840Z,16.50
2018-10-06T19:22:47.604Z,16.40
2018-10-06T19:25:16.369Z,16.40
2018-10-06T19:27:45.786Z,16.40
2018-10-06T19:30:15.005Z,16.30
2018-10-06T19:32:45.801Z,16.30
2018-10-06T19:35:14.920Z,16.30
2018-10-06T19:37:42.672Z,16.30
2018-10-06T19:40:12.401Z,16.20
2018-10-06T19:42:43.163Z,16.20
2018-10-06T19:45:18.275Z,16.20
2018-10-06T19:47:54.795Z,16.20
2018-10-06T19:50:23.415Z,16.20
2018-10-06T19:52:53.175Z,16.20
2018-10-06T19:55:45.121Z,16.20
2018-10-06T19:58:16.633Z,16.10
2018-10-06T20:00:48.324Z,16.10
2018-10-06T20:03:18.546Z,16.10
2018-10-06T20:05:47.603Z,15.90
2018-10-06T20:08:17.428Z,15.90
2018-10-06T20:10:47.629Z,16.20
2018-10-06T20:13:15.307Z,16.00
2018-10-06T20:15:44.080Z,16.00
2018-10-06T20:18:12.179Z,16.00
2018-10-06T20:20:42.188Z,16.00
2018-10-06T20:23:11.491Z,16.00
2018-10-06T20:25:40.188Z,16.00
2018-10-06T20:28:11.832Z,15.90
2018-10-06T20:30:39.771Z,15.90
2018-10-06T20:33:08.480Z,15.80
2018-10-06T20:35:37.799Z,15.90
2018-10-06T20:38:06.495Z,15.80
2018-10-06T20:43:10.304Z,15.80
2018-10-06T20:45:45.969Z,15.80
2018-10-06T20:48:13.407Z,15.80
2018-10-06T20:50:40.921Z,15.80
2018-10-06T20:53:08.399Z,15.70
2018-10-06T20:55:35.932Z,15.70
2018-10-06T20:58:03.442Z,15.70
2018-10-06T21:00:30.941Z,15.70
2018-10-06T21:02:58.500Z,15.70
2018-10-06T21:05:26.013Z,15.60
2018-10-06T21:07:53.620Z,15.60
2018-10-06T21:10:21.065Z,15.70
2018-10-06T21:12:48.631Z,15.60
2018-10-06T21:15:17.516Z,15.60
2018-10-06T21:17:45.091Z,15.50
2018-10-06T21:20:12.660Z,15.60
2018-10-06T21:22:40.152Z,15.60
2018-10-06T21:25:07.661Z,15.60
2018-10-06T21:27:35.156Z,15.60
2018-10-06T21:30:02.698Z,15.50
2018-10-06T21:32:30.183Z,15.50
2018-10-06T21:34:57.604Z,15.50
2018-10-06T21:37:25.141Z,15.50
2018-10-06T21:39:52.615Z,15.40
2018-10-06T21:42:20.124Z,15.40
2018-10-06T21:44:47.597Z,15.40
2018-10-06T21:47:15.140Z,15.30
2018-10-06T21:49:42.643Z,15.40
2018-10-06T21:52:10.122Z,15.30
2018-10-06T21:54:37.638Z,15.30
2018-10-06T21:57:05.207Z,15.30
2018-10-06T21:59:32.717Z,15.30
2018-10-06T22:02:00.192Z,15.20
2018-10-06T22:04:27.651Z,15.20
2018-10-06T22:06:55.196Z,15.20
2018-10-06T22:09:22.716Z,15.10
2018-10-06T22:11:50.279Z,15.10
2018-10-06T22:14:17.759Z,15.00
2018-10-06T22:16:45.274Z,15.00
2018-10-06T22:19:12.748Z,15.00
2018-10-06T22:21:40.267Z,14.90
2018-10-06T22:24:07.723Z,14.90
2018-10-06T22:26:35.181Z,14.90
2018-10-06T22:29:02.787Z,14.80
2018-10-06T22:31:30.453Z,14.90
2018-10-06T22:33:57.922Z,14.90
2018-10-06T22:36:25.371Z,14.90
2018-10-06T22:38:53.074Z,14.90
2018-10-06T22:41:20.618Z,14.90
2018-10-06T22:43:48.233Z,14.80
2018-10-06T22:46:15.718Z,14.80
2018-10-06T22:48:43.169Z,14.70
2018-10-06T22:51:10.620Z,14.70
2018-10-06T22:53:38.135Z,14.70
2018-10-06T22:56:05.800Z,14.70
2018-10-06T22:58:33.263Z,14.60
2018-10-06T23:01:00.792Z,14.60
2018-10-06T23:03:28.308Z,14.50
2018-10-06T23:05:59.667Z,14.50
2018-10-06T23:08:27.311Z,14.50
2018-10-06T23:10:54.826Z,14.50
2018-10-06T23:13:22.359Z,14.60
2018-10-06T23:15:49.833Z,14.50
2018-10-06T23:18:17.348Z,14.50
2018-10-06T23:20:44.843Z,14.40
2018-10-06T23:23:12.286Z,14.40
2018-10-06T23:25:39.831Z,14.30
2018-10-06T23:28:07.327Z,14.30
2018-10-06T23:30:34.799Z,14.40
2018-10-06T23:33:02.311Z,14.30
2018-10-06T23:35:31.259Z,14.30
2018-10-06T23:37:59.002Z,14.30
2018-10-06T23:40:26.470Z,14.20
2018-10-06T23:42:53.937Z,14.30
2018-10-06T23:45:21.428Z,14.30
2018-10-06T23:47:49.093Z,14.30
2018-10-06T23:50:16.590Z,14.30
2018-10-06T23:52:44.035Z,14.10
2018-10-06T23:55:11.458Z,14.20
2018-10-06T23:57:39.208Z,14.20
